createdAt,value
2023-01-20T00:04:30.875Z,15.13
2023-01-20T00:09:32.729Z,16.58
2023-01-20T00:14:36.205Z,16.42
2023-01-20T00:19:38.188Z,16.88
2023-01-20T00:24:40.275Z,17.40
2023-01-20T00:29:44.266Z,16.65
2023-01-20T00:34:46.404Z,16.15
2023-01-20T00:40:04.302Z,15.57
2023-01-20T00:45:06.992Z,14.27
2023-01-20T00:50:09.547Z,17.48
2023-01-20T00:55:11.851Z,16.30
2023-01-20T01:00:14.366Z,16.17
2023-01-20T01:05:17.753Z,14.60
2023-01-20T01:10:19.850Z,18.50
2023-01-20T01:15:23.227Z,17.70
2023-01-20T01:20:25.967Z,16.35
2023-01-20T01:25:28.398Z,15.73
2023-01-20T01:30:30.526Z,15.88
2023-01-20T01:35:32.609Z,15.68
2023-01-20T01:40:35.745Z,15.27
2023-01-20T01:45:37.942Z,16.05
2023-01-20T01:50:56.071Z,13.63
2023-01-20T01:56:02.041Z,17.77
2023-01-20T02:01:04.322Z,16.98
2023-01-20T02:06:07.861Z,19.13
2023-01-20T02:11:09.949Z,16.48
2023-01-20T02:16:38.497Z,16.52
2023-01-20T02:22:08.773Z,17.10
2023-01-20T02:27:42.942Z,14.90
2023-01-20T02:32:50.818Z,15.55
2023-01-20T02:38:14.419Z,14.52
2023-01-20T02:43:40.297Z,15.50
2023-01-20T02:48:50.776Z,20.70
2023-01-20T02:54:04.672Z,14.85
2023-01-20T02:59:13.264Z,16.60
2023-01-20T03:04:21.916Z,13.05
2023-01-20T03:09:34.985Z,16.60
2023-01-20T03:14:37.294Z,15.75
2023-01-20T03:19:41.730Z,17.17
2023-01-20T03:24:46.182Z,15.18
2023-01-20T03:29:49.572Z,16.30
2023-01-20T03:34:51.864Z,16.85
2023-01-20T03:39:54.171Z,15.93
2023-01-20T03:45:18.224Z,24.20
2023-01-20T03:50:54.002Z,16.95
2023-01-20T03:56:03.311Z,14.52
2023-01-20T04:01:16.142Z,14.23
2023-01-20T04:06:23.886Z,16.67
2023-01-20T04:11:27.285Z,18.45
2023-01-20T04:16:30.476Z,15.20
2023-01-20T04:21:55.867Z,19.30
2023-01-20T04:26:57.899Z,18.83
2023-01-20T04:32:06.580Z,17.67
2023-01-20T04:37:08.985Z,13.55
2023-01-20T04:42:12.452Z,15.80
2023-01-20T04:47:14.525Z,16.80
2023-01-20T04:52:20.108Z,15.45
2023-01-20T04:57:23.348Z,15.32
2023-01-20T05:02:25.336Z,16.52
2023-01-20T05:07:27.891Z,15.90
2023-01-20T05:12:30.163Z,17.45
2023-01-20T05:17:32.677Z,17.13
2023-01-20T05:22:34.931Z,15.85
2023-01-20T05:27:38.044Z,19.48
2023-01-20T05:32:39.967Z,18.75
2023-01-20T05:37:42.984Z,16.58
2023-01-20T05:42:48.126Z,22.23
2023-01-20T05:47:55.499Z,17.13
2023-01-20T05:52:58.710Z,17.17
2023-01-20T05:58:05.873Z,19.88
2023-01-20T06:03:08.310Z,20.88
2023-01-20T06:08:10.293Z,18.13
2023-01-20T06:13:14.323Z,18.55
2023-01-20T06:18:18.961Z,20.50
2023-01-20T06:23:20.839Z,21.17
2023-01-20T06:28:22.774Z,19.42
2023-01-20T06:33:30.146Z,17.75
2023-01-20T06:38:36.529Z,17.17
2023-01-20T06:43:42.380Z,19.17
2023-01-20T06:48:45.648Z,19.90
2023-01-20T06:53:47.884Z,18.67
2023-01-20T06:58:50.210Z,21.30
2023-01-20T07:03:52.393Z,15.65
2023-01-20T07:08:56.637Z,16.70
2023-01-20T07:13:59.656Z,19.20
2023-01-20T07:19:01.486Z,17.08
2023-01-20T07:24:03.747Z,18.40
2023-01-20T07:29:05.575Z,17.83
2023-01-20T07:34:07.613Z,19.42
2023-01-20T07:39:11.736Z,18.00
2023-01-20T07:44:13.779Z,18.15
2023-01-20T07:49:16.172Z,19.88
2023-01-20T07:54:19.081Z,18.98
2023-01-20T07:59:24.027Z,29.63
2023-01-20T08:04:25.924Z,16.98
2023-01-20T08:09:28.103Z,19.70
2023-01-20T08:14:30.082Z,20.20
2023-01-20T08:19:32.250Z,23.05
2023-01-20T08:24:34.203Z,19.58
2023-01-20T08:29:37.449Z,19.13
2023-01-20T08:34:39.354Z,17.73
2023-01-20T08:39:41.079Z,16.02
2023-01-20T08:44:42.969Z,18.13
2023-01-20T08:49:45.211Z,20.00
2023-01-20T08:54:46.931Z,22.48
2023-01-20T08:59:50.998Z,24.63
2023-01-20T09:04:53.226Z,20.98
2023-01-20T09:09:55.118Z,20.88
2023-01-20T09:14:56.879Z,21.25
2023-01-20T09:19:58.567Z,20.17
2023-01-20T09:25:00.475Z,35.00
2023-01-20T09:30:03.174Z,21.75
2023-01-20T09:35:05.978Z,20.67
2023-01-20T09:40:37.104Z,20.67
2023-01-20T09:45:45.914Z,18.13
2023-01-20T09:51:12.218Z,17.17
2023-01-20T09:56:18.022Z,18.70
2023-01-20T10:01:42.803Z,18.50
2023-01-20T10:06:59.559Z,25.05
2023-01-20T10:12:29.656Z,21.42
2023-01-20T10:17:37.569Z,17.17
2023-01-20T10:22:53.579Z,21.45
2023-01-20T10:28:28.498Z,18.50
2023-01-20T10:33:44.137Z,16.98
2023-01-20T10:38:59.521Z,17.73
2023-01-20T10:44:13.818Z,16.75
2023-01-20T10:49:34.357Z,15.32
2023-01-20T10:54:56.037Z,25.70
2023-01-20T11:00:02.157Z,19.15
2023-01-20T11:05:30.704Z,19.90
2023-01-20T11:10:34.707Z,17.92
2023-01-20T11:15:46.050Z,20.70
2023-01-20T11:21:12.841Z,21.40
2023-01-20T11:26:23.190Z,18.25
2023-01-20T11:31:39.626Z,20.73
2023-01-20T11:36:41.470Z,20.92
2023-01-20T11:41:43.269Z,25.77
2023-01-20T11:46:45.023Z,20.73
2023-01-20T11:51:57.322Z,21.98
2023-01-20T11:57:10.594Z,23.45
2023-01-20T12:02:12.276Z,21.08
2023-01-20T12:07:44.259Z,23.50
2023-01-20T12:12:52.154Z,20.90
2023-01-20T12:18:05.220Z,21.08
2023-01-20T12:23:28.831Z,20.08
2023-01-20T12:28:49.058Z,21.42
2023-01-20T12:33:57.745Z,21.33
2023-01-20T12:39:05.753Z,22.70
2023-01-20T12:44:18.427Z,21.70
2023-01-20T12:49:39.184Z,21.30
2023-01-20T12:54:57.524Z,23.55
2023-01-20T13:00:17.604Z,25.00
2023-01-20T13:05:57.825Z,21.90
2023-01-20T13:11:35.055Z,23.23
2023-01-20T13:17:21.010Z,18.88
2023-01-20T13:22:26.745Z,23.02
2023-01-20T13:27:34.294Z,23.00
2023-01-20T13:32:48.276Z,23.77
2023-01-20T13:38:01.256Z,23.90
2023-01-20T13:43:44.511Z,23.15
2023-01-20T13:49:15.608Z,21.02
2023-01-20T13:54:25.060Z,20.90
2023-01-20T13:59:27.142Z,21.25
2023-01-20T14:04:29.756Z,20.80
2023-01-20T14:09:31.482Z,20.30
2023-01-20T14:14:33.243Z,23.15
2023-01-20T14:19:35.377Z,36.63
2023-01-20T14:24:43.721Z,26.20
2023-01-20T14:29:46.747Z,24.67
2023-01-20T14:34:48.829Z,22.05
2023-01-20T14:39:51.426Z,25.13
2023-01-20T14:44:55.585Z,26.05
2023-01-20T14:49:57.887Z,24.55
2023-01-20T14:55:00.273Z,23.55
2023-01-20T15:00:12.377Z,23.02
2023-01-20T15:05:34.639Z,15.70
2023-01-20T15:10:36.784Z,18.58
2023-01-20T15:15:38.605Z,19.95
2023-01-20T15:20:49.468Z,23.60
2023-01-20T15:25:52.901Z,19.73
2023-01-20T15:30:57.059Z,23.35
2023-01-20T15:36:00.618Z,19.33
2023-01-20T15:41:02.474Z,22.95
2023-01-20T15:46:13.425Z,22.33
2023-01-20T15:51:17.731Z,23.67
2023-01-20T15:56:30.229Z,21.65
2023-01-20T16:01:32.240Z,19.23
2023-01-20T16:06:34.615Z,22.17
2023-01-20T16:11:36.374Z,20.27
2023-01-20T16:16:38.446Z,23.40
2023-01-20T16:21:40.710Z,25.35
2023-01-20T16:26:46.188Z,30.17
2023-01-20T16:31:48.089Z,24.35
2023-01-20T16:36:50.123Z,29.35
2023-01-20T16:41:52.042Z,32.03
2023-01-20T16:46:54.016Z,28.08
2023-01-20T16:51:55.765Z,31.42
2023-01-20T16:56:57.480Z,39.70
2023-01-20T17:07:15.037Z,29.88
2023-01-20T17:12:16.809Z,30.35
2023-01-20T17:17:18.677Z,32.03
2023-01-20T17:22:20.461Z,28.48
2023-01-20T17:27:22.384Z,29.83
2023-01-20T17:32:32.039Z,31.65
2023-01-20T17:37:33.898Z,35.53
2023-01-20T17:42:35.632Z,30.02
2023-01-20T17:47:37.419Z,36.33
2023-01-20T17:52:39.185Z,37.42
2023-01-20T17:57:41.209Z,35.45
2023-01-20T18:02:43.113Z,31.70
2023-01-20T18:07:44.950Z,37.00
2023-01-20T18:12:47.908Z,45.03
2023-01-20T18:17:49.574Z,34.08
2023-01-20T18:22:51.320Z,35.88
2023-01-20T18:27:53.034Z,35.65
2023-01-20T18:32:57.511Z,31.60
2023-01-20T18:38:01.834Z,35.30
2023-01-20T18:43:03.623Z,41.67
2023-01-20T18:48:05.619Z,39.20
2023-01-20T18:53:07.339Z,39.42
2023-01-20T18:58:10.870Z,36.47
2023-01-20T19:03:12.527Z,38.25
2023-01-20T19:08:14.225Z,45.20
2023-01-20T19:13:16.228Z,53.92
2023-01-20T19:18:17.971Z,68.45
2023-01-20T19:23:20.153Z,55.75
2023-01-20T19:28:21.894Z,49.88
2023-01-20T19:33:24.143Z,53.70
2023-01-20T19:38:26.507Z,39.95
2023-01-20T19:43:28.304Z,40.30
2023-01-20T19:48:30.918Z,36.00
2023-01-20T19:53:33.657Z,34.35
2023-01-20T19:58:35.995Z,34.92
2023-01-20T20:03:38.176Z,38.10
2023-01-20T20:08:39.938Z,36.47
2023-01-20T20:13:41.774Z,36.05
2023-01-20T20:18:44.126Z,36.33
2023-01-20T20:23:53.520Z,37.50
2023-01-20T20:28:55.634Z,35.88
2023-01-20T20:34:13.180Z,43.22
2023-01-20T20:39:17.175Z,43.42
2023-01-20T20:44:19.045Z,49.17
2023-01-20T20:49:21.285Z,44.33
2023-01-20T20:54:23.070Z,45.78
2023-01-20T20:59:24.865Z,40.25
2023-01-20T21:04:27.092Z,43.33
2023-01-20T21:09:29.091Z,41.40
2023-01-20T21:14:30.826Z,42.03
2023-01-20T21:19:32.577Z,41.67
2023-01-20T21:24:34.449Z,43.72
2023-01-20T21:29:36.213Z,39.72
2023-01-20T21:34:38.049Z,43.47
2023-01-20T21:39:39.915Z,50.97
2023-01-20T21:44:43.150Z,35.55
2023-01-20T21:50:03.672Z,42.13
2023-01-20T21:55:09.105Z,43.85
2023-01-20T22:00:13.179Z,40.97
2023-01-20T22:05:15.346Z,35.78
2023-01-20T22:10:17.697Z,41.05
2023-01-20T22:15:19.639Z,44.22
2023-01-20T22:20:21.494Z,35.40
2023-01-20T22:25:23.294Z,39.53
2023-01-20T22:30:25.127Z,39.70
2023-01-20T22:35:26.900Z,36.85
2023-01-20T22:40:28.694Z,38.92
2023-01-20T22:45:30.513Z,40.08
2023-01-20T22:50:34.312Z,36.35
2023-01-20T22:55:36.141Z,36.92
2023-01-20T23:00:38.160Z,38.13
2023-01-20T23:05:41.024Z,41.53
2023-01-20T23:10:49.032Z,37.53
2023-01-20T23:15:51.379Z,42.13
2023-01-20T23:20:54.404Z,36.70
2023-01-20T23:26:03.121Z,40.65
2023-01-20T23:31:07.352Z,40.08
2023-01-20T23:36:14.714Z,35.45
2023-01-20T23:41:16.954Z,38.35
2023-01-20T23:46:18.924Z,37.35
2023-01-20T23:51:20.950Z,35.90
2023-01-20T23:56:24.445Z,35.42
